Time;durP1;ratioP1;P1;durP2;ratioP2;P2;SDS_P1;SDS_P2;PMS_P1;PMS_P2;Temp;Humidity;BMP_temperature;BMP_pressure;BME280_temperature;BME280_humidity;BME280_pressure;Samples;Min_cycle;Max_cycle;Signal;HPM_P1;HPM_P2
2022/08/02 00:01:23;;;;;;;6.25;1.33;;;18.40;99.90;;;;;;4992563;28;20498;-58
2022/08/02 00:03:49;;;;;;;5.30;1.40;;;18.40;99.90;;;;;;5007244;28;20037;-58
2022/08/02 00:06:15;;;;;;;7.18;1.52;;;18.40;99.90;;;;;;4999914;28;20498;-58
2022/08/02 00:08:41;;;;;;;5.60;1.45;;;18.40;99.90;;;;;;4997310;28;20021;-58
2022/08/02 00:11:07;;;;;;;3.63;1.45;;;18.40;99.90;;;;;;4994371;28;20025;-58
2022/08/02 00:13:32;;;;;;;9.02;1.45;;;18.40;99.90;;;;;;4999133;28;20390;-58
2022/08/02 00:15:58;;;;;;;9.45;1.70;;;18.40;99.90;;;;;;4992930;28;20038;-58
2022/08/02 00:18:24;;;;;;;6.90;1.88;;;18.40;99.90;;;;;;4992832;28;20039;-58
2022/08/02 00:20:50;;;;;;;5.18;1.40;;;18.40;99.90;;;;;;5002174;28;20033;-57
2022/08/02 00:23:16;;;;;;;11.88;1.75;;;18.50;99.90;;;;;;4992464;28;20038;-57
2022/08/02 00:25:42;;;;;;;9.90;2.03;;;18.50;99.90;;;;;;4991902;28;20038;-57
2022/08/02 00:28:09;;;;;;;6.18;2.08;;;18.50;99.90;;;;;;4994233;28;20028;-58
2022/08/02 00:30:35;;;;;;;13.10;1.73;;;18.50;99.90;;;;;;4992608;28;20472;-58
2022/08/02 00:33:01;;;;;;;4.97;1.63;;;18.50;99.90;;;;;;5003844;28;20117;-58
2022/08/02 00:35:28;;;;;;;5.00;1.52;;;18.50;99.90;;;;;;5002756;28;20033;-58
2022/08/02 00:37:53;;;;;;;8.98;1.58;;;18.50;99.90;;;;;;4997436;28;20371;-58
2022/08/02 00:40:23;;;;;;;5.55;1.67;;;18.50;99.90;;;;;;4993357;28;20512;-58
2022/08/02 00:43:09;;;;;;;9.10;1.92;;;18.60;99.90;;;;;;5001065;28;20520;-58
2022/08/02 00:45:40;;;;;;;8.32;1.80;;;18.60;99.90;;;;;;4983957;28;20046;-58
2022/08/02 00:48:07;;;;;;;11.80;3.80;;;18.50;99.90;;;;;;4993108;28;20026;-58
2022/08/02 00:50:34;;;;;;;9.07;2.58;;;18.40;99.90;;;;;;5007909;28;20474;-58
2022/08/02 00:53:01;;;;;;;8.63;2.38;;;18.40;99.90;;;;;;4999228;28;20057;-58
2022/08/02 00:55:27;;;;;;;7.28;2.40;;;18.40;99.90;;;;;;5000950;28;20030;-58
2022/08/02 00:57:54;;;;;;;6.95;2.55;;;18.40;99.90;;;;;;5005807;28;20025;-58
2022/08/02 01:00:20;;;;;;;8.15;2.03;;;18.40;99.90;;;;;;4994928;28;20034;-58
2022/08/02 01:02:46;;;;;;;6.10;2.08;;;18.40;99.90;;;;;;4998463;28;20390;-58
2022/08/02 01:05:13;;;;;;;7.13;2.35;;;18.40;99.90;;;;;;5005987;28;20033;-58
2022/08/02 01:07:39;;;;;;;13.30;2.60;;;18.40;99.90;;;;;;4993620;28;20482;-58
2022/08/02 01:10:05;;;;;;;5.55;1.90;;;18.40;99.90;;;;;;5006492;28;20026;-59
2022/08/02 01:12:31;;;;;;;5.00;1.92;;;18.30;99.90;;;;;;5003353;28;20065;-58
2022/08/02 01:15:07;;;;;;;6.45;2.15;;;18.30;99.90;;;;;;4990095;28;20030;-58
2022/08/02 01:17:46;;;;;;;6.70;2.45;;;18.30;99.90;;;;;;4989308;28;20026;-58
2022/08/02 01:20:14;;;;;;;12.52;2.55;;;18.30;99.90;;;;;;4989504;28;20391;-58
2022/08/02 01:23:34;;;;;;;11.05;2.65;;;18.30;99.90;;;;;;5002169;28;20042;-58
2022/08/02 01:26:25;;;;;;;12.95;2.45;;;18.30;99.90;;;;;;4981867;28;20034;-59
2022/08/02 01:29:08;;;;;;;9.70;2.63;;;18.30;99.90;;;;;;4986520;28;20042;-58
2022/08/02 01:31:53;;;;;;;5.72;2.47;;;18.40;99.90;;;;;;4985895;28;20105;-58
2022/08/02 01:34:18;;;;;;;7.35;2.53;;;18.40;99.90;;;;;;4986121;28;20097;-58
2022/08/02 01:36:59;;;;;;;6.80;2.28;;;18.40;99.90;;;;;;4987210;28;20034;-58
2022/08/02 01:39:28;;;;;;;10.05;2.30;;;18.40;99.90;;;;;;4979583;28;20027;-58
2022/08/02 01:41:57;;;;;;;5.07;2.22;;;18.40;99.90;;;;;;4987196;28;20038;-58
2022/08/02 01:44:25;;;;;;;7.07;2.70;;;18.30;99.90;;;;;;4986045;28;20062;-58
2022/08/02 01:46:54;;;;;;;12.90;2.38;;;18.30;99.90;;;;;;4985918;28;20496;-58
2022/08/02 01:49:22;;;;;;;7.05;2.30;;;18.30;99.90;;;;;;4985323;28;20038;-59
2022/08/02 01:54:37;;;;;;;7.25;2.85;;;18.30;99.90;;;;;;4981561;28;20065;-58
2022/08/02 01:57:06;;;;;;;8.20;2.92;;;18.20;99.90;;;;;;4963129;28;20041;-59
2022/08/02 01:59:33;;;;;;;8.40;2.40;;;18.20;99.90;;;;;;4988972;28;20038;-58
2022/08/02 02:02:01;;;;;;;8.30;2.60;;;18.20;99.90;;;;;;4994788;28;20383;-58
2022/08/02 02:04:31;;;;;;;7.45;2.15;;;18.20;99.90;;;;;;4991810;28;20030;-58
2022/08/02 02:06:57;;;;;;;7.32;2.60;;;18.20;99.90;;;;;;4990254;28;20023;-58
2022/08/02 02:09:27;;;;;;;7.13;2.42;;;18.20;99.90;;;;;;5017656;28;20072;-58
2022/08/02 02:11:56;;;;;;;4.15;2.40;;;18.20;99.90;;;;;;4998359;28;20069;-58
2022/08/02 02:14:24;;;;;;;5.45;2.08;;;18.20;99.90;;;;;;4995987;28;20030;-58
2022/08/02 02:16:51;;;;;;;6.97;2.22;;;18.20;99.90;;;;;;5003380;28;20085;-59
2022/08/02 02:19:19;;;;;;;9.88;2.90;;;18.20;99.90;;;;;;4986043;28;20022;-58
2022/08/02 02:21:45;;;;;;;7.63;2.20;;;18.20;99.90;;;;;;4994056;28;20042;-58
2022/08/02 02:24:11;;;;;;;5.75;2.40;;;18.30;99.90;;;;;;4997206;28;20030;-58
2022/08/02 02:26:40;;;;;;;8.15;2.47;;;18.30;99.90;;;;;;4992273;28;20030;-59
2022/08/02 02:29:08;;;;;;;7.65;2.97;;;18.30;99.90;;;;;;4998793;28;20081;-58
2022/08/02 02:31:39;;;;;;;11.00;2.78;;;18.30;99.90;;;;;;4995750;28;20064;-58
2022/08/02 02:34:10;;;;;;;7.88;2.60;;;18.40;99.90;;;;;;4998923;28;20422;-58
2022/08/02 02:36:44;;;;;;;3.47;2.33;;;18.40;99.90;;;;;;4992752;28;20483;-58
2022/08/02 02:39:13;;;;;;;9.05;2.08;;;18.50;99.90;;;;;;4993735;28;20113;-58
2022/08/02 02:41:41;;;;;;;8.00;2.42;;;18.50;99.90;;;;;;4993148;28;20418;-58
2022/08/02 02:44:09;;;;;;;10.52;2.58;;;18.50;99.90;;;;;;4998254;28;20037;-58
2022/08/02 02:46:36;;;;;;;6.45;2.28;;;18.50;99.90;;;;;;4996127;28;20049;-58
2022/08/02 02:49:02;;;;;;;6.68;2.20;;;18.50;99.90;;;;;;4999274;28;20030;-59
2022/08/02 02:51:29;;;;;;;8.68;2.10;;;18.60;99.90;;;;;;4994471;28;20018;-58
2022/08/02 02:53:56;;;;;;;7.30;2.22;;;18.60;99.90;;;;;;4999361;28;20022;-58
2022/08/02 02:56:23;;;;;;;6.85;2.17;;;18.60;99.90;;;;;;4994075;28;20487;-58
2022/08/02 02:58:49;;;;;;;12.07;2.67;;;18.70;99.90;;;;;;5003276;28;20025;-58
2022/08/02 03:01:27;;;;;;;8.43;2.30;;;18.70;99.90;;;;;;5001601;28;20498;-57
2022/08/02 03:03:55;;;;;;;6.63;2.28;;;18.70;99.90;;;;;;5000156;28;20505;-57
2022/08/02 03:06:21;;;;;;;6.53;2.28;;;18.70;99.90;;;;;;4998853;28;20058;-57
2022/08/02 03:08:47;;;;;;;7.18;2.08;;;18.80;99.90;;;;;;5001374;28;20027;-57
2022/08/02 03:11:14;;;;;;;9.52;2.45;;;18.80;99.90;;;;;;5004188;28;20096;-57
2022/08/02 03:13:40;;;;;;;9.10;2.40;;;18.80;99.90;;;;;;4991273;28;20038;-57
2022/08/02 03:16:06;;;;;;;4.97;2.05;;;18.80;99.90;;;;;;4992275;28;20113;-57
2022/08/02 03:18:37;;;;;;;5.97;1.92;;;18.80;99.90;;;;;;4997744;28;20018;-57
2022/08/02 03:21:06;;;;;;;5.30;1.80;;;18.80;99.90;;;;;;4991729;28;20038;-57
2022/08/02 03:23:32;;;;;;;11.88;2.38;;;18.80;99.90;;;;;;4991662;28;20015;-57
2022/08/02 03:25:58;;;;;;;5.40;1.80;;;18.80;99.90;;;;;;5002572;28;20023;-57
2022/08/02 03:28:24;;;;;;;6.63;2.50;;;18.90;99.90;;;;;;5009399;28;20188;-57
2022/08/02 03:30:50;;;;;;;7.28;1.40;;;18.90;99.90;;;;;;4995398;28;20142;-57
2022/08/02 03:33:17;;;;;;;5.70;1.73;;;18.90;99.90;;;;;;4996048;28;20494;-57
2022/08/02 03:35:46;;;;;;;7.18;1.92;;;18.90;99.90;;;;;;4996642;28;20144;-57
2022/08/02 03:38:14;;;;;;;4.68;1.48;;;18.90;99.90;;;;;;4991295;28;20116;-57
2022/08/02 03:40:43;;;;;;;7.60;2.17;;;19.00;99.90;;;;;;4993408;28;20062;-57
2022/08/02 03:43:10;;;;;;;7.03;1.65;;;19.00;99.90;;;;;;4995487;28;20030;-57
2022/08/02 03:45:43;;;;;;;4.03;1.13;;;19.00;99.90;;;;;;5003209;28;20136;-57
2022/08/02 03:48:10;;;;;;;5.60;1.50;;;19.00;99.90;;;;;;4995957;28;20054;-57
2022/08/02 03:50:41;;;;;;;6.07;1.38;;;19.10;99.90;;;;;;4994775;28;20022;-57
2022/08/02 03:53:07;;;;;;;9.90;1.80;;;19.10;99.90;;;;;;4997450;28;20033;-57
2022/08/02 03:55:34;;;;;;;5.05;1.33;;;19.00;99.90;;;;;;4995933;28;20395;-57
2022/08/02 03:58:01;;;;;;;6.85;1.40;;;19.00;99.90;;;;;;5001280;28;20541;-57
2022/08/02 04:00:28;;;;;;;5.65;1.90;;;19.10;99.90;;;;;;4984353;28;20433;-57
2022/08/02 04:02:53;;;;;;;5.60;1.52;;;19.10;99.90;;;;;;4995116;28;20045;-57
2022/08/02 04:05:19;;;;;;;3.83;1.25;;;19.10;99.90;;;;;;4995958;28;20030;-57
2022/08/02 04:07:47;;;;;;;7.35;1.20;;;19.00;99.90;;;;;;4990259;28;20379;-58
2022/08/02 04:10:17;;;;;;;7.55;1.63;;;19.00;99.90;;;;;;5000032;28;20459;-57
2022/08/02 04:12:43;;;;;;;7.60;2.03;;;18.90;99.90;;;;;;5003889;28;20053;-57
2022/08/02 04:15:13;;;;;;;7.85;1.40;;;19.00;99.90;;;;;;5017781;28;20096;-57
2022/08/02 04:17:44;;;;;;;6.28;1.55;;;19.00;99.90;;;;;;4996506;28;20080;-57
2022/08/02 04:20:17;;;;;;;6.63;1.50;;;18.90;99.90;;;;;;5003998;28;20065;-57
2022/08/02 04:23:11;;;;;;;6.53;1.70;;;18.90;99.90;;;;;;4991245;28;20035;-57
2022/08/02 04:25:38;;;;;;;8.07;1.77;;;18.90;99.90;;;;;;4989954;28;20034;-57
2022/08/02 04:28:06;;;;;;;5.50;1.48;;;18.90;99.90;;;;;;4991808;28;20050;-57
2022/08/02 04:30:32;;;;;;;8.80;2.63;;;18.90;99.90;;;;;;4992092;28;20034;-57
2022/08/02 04:32:59;;;;;;;9.80;2.13;;;18.90;99.90;;;;;;5010115;28;20113;-57
2022/08/02 04:35:25;;;;;;;6.85;1.80;;;18.90;99.90;;;;;;5001253;28;20087;-57
2022/08/02 04:37:52;;;;;;;7.95;2.10;;;18.90;99.90;;;;;;4995133;28;20026;-58
2022/08/02 04:40:18;;;;;;;7.85;2.08;;;18.90;99.90;;;;;;4997107;28;20034;-57
2022/08/02 04:42:44;;;;;;;8.77;2.60;;;18.90;99.90;;;;;;4997904;28;20034;-57
2022/08/02 04:45:11;;;;;;;9.88;2.30;;;18.90;99.90;;;;;;4992190;28;20050;-57
2022/08/02 04:47:36;;;;;;;11.32;2.33;;;18.90;99.90;;;;;;4991037;28;20112;-58
2022/08/02 04:50:03;;;;;;;8.32;1.88;;;18.90;99.90;;;;;;4989620;28;20046;-58
2022/08/02 04:52:29;;;;;;;7.50;1.92;;;18.90;99.90;;;;;;4992971;28;20018;-57
2022/08/02 04:54:55;;;;;;;7.97;1.80;;;18.90;99.90;;;;;;4998919;28;20028;-57
2022/08/02 05:00:07;;;;;;;4.90;1.13;;;18.90;99.90;;;;;;4990207;28;20053;-61
2022/08/02 05:02:34;;;;;;;5.18;1.40;;;19.00;99.90;;;;;;4991793;28;20038;-58
2022/08/02 05:04:59;;;;;;;3.13;1.00;;;19.00;99.90;;;;;;5000618;28;20127;-58
2022/08/02 05:07:25;;;;;;;6.30;1.20;;;19.10;99.90;;;;;;4988875;28;20431;-58
2022/08/02 05:09:54;;;;;;;9.40;1.17;;;19.10;99.90;;;;;;5002978;28;20551;-58
2022/08/02 05:12:21;;;;;;;3.95;1.45;;;19.10;99.90;;;;;;4991545;28;20035;-59
2022/08/02 05:14:47;;;;;;;8.88;1.58;;;19.00;99.90;;;;;;4983457;28;20023;-58
2022/08/02 05:17:13;;;;;;;5.00;1.42;;;19.00;99.90;;;;;;4984796;28;20097;-58
2022/08/02 05:19:40;;;;;;;6.90;1.25;;;19.10;99.90;;;;;;4992487;28;20504;-59
2022/08/02 05:22:09;;;;;;;4.85;1.38;;;19.10;99.90;;;;;;4988354;28;20065;-58
2022/08/02 05:24:35;;;;;;;9.52;1.73;;;19.10;99.90;;;;;;4991568;28;20018;-59
2022/08/02 05:27:01;;;;;;;5.07;1.50;;;19.10;99.90;;;;;;4995466;28;20042;-58
2022/08/02 05:29:27;;;;;;;5.80;1.88;;;19.10;99.90;;;;;;4987892;28;20060;-58
2022/08/02 05:31:53;;;;;;;3.78;1.25;;;19.20;99.90;;;;;;4994268;28;20120;-59
2022/08/02 05:34:19;;;;;;;5.53;1.70;;;19.20;99.90;;;;;;4987056;28;20022;-58
2022/08/02 05:36:45;;;;;;;6.28;1.45;;;19.20;99.90;;;;;;4993182;28;20065;-58
2022/08/02 05:39:10;;;;;;;2.08;1.00;;;19.30;99.90;;;;;;4986591;28;20484;-58
2022/08/02 05:41:36;;;;;;;7.50;1.58;;;19.20;99.90;;;;;;4996344;28;20042;-58
2022/08/02 05:44:03;;;;;;;5.85;1.55;;;19.20;99.90;;;;;;4998796;28;20463;-58
2022/08/02 05:46:28;;;;;;;5.53;1.30;;;19.10;99.90;;;;;;4996392;28;20023;-57
2022/08/02 05:48:54;;;;;;;6.45;1.35;;;19.10;99.90;;;;;;4989952;28;20077;-58
2022/08/02 05:51:33;;;;;;;4.90;1.45;;;19.20;99.90;;;;;;4991999;28;20497;-58
2022/08/02 05:54:08;;;;;;;6.53;1.65;;;19.20;99.90;;;;;;4997759;28;20485;-59
2022/08/02 05:56:50;;;;;;;10.73;1.50;;;19.20;99.90;;;;;;4988573;28;20030;-57
2022/08/02 05:59:45;;;;;;;3.67;1.33;;;19.10;99.90;;;;;;4991849;28;20489;-58
2022/08/02 06:02:42;;;;;;;5.05;1.50;;;19.20;99.90;;;;;;4982050;28;20498;-59
2022/08/02 06:05:18;;;;;;;4.47;1.63;;;19.30;99.90;;;;;;5011424;28;20025;-57
2022/08/02 06:07:45;;;;;;;5.13;1.00;;;19.30;99.90;;;;;;4997555;28;20406;-58
2022/08/02 06:10:12;;;;;;;3.05;1.50;;;19.40;99.90;;;;;;5001933;28;20044;-58
2022/08/02 06:12:47;;;;;;;10.00;1.60;;;19.50;99.90;;;;;;5002170;28;20478;-58
2022/08/02 06:15:14;;;;;;;5.65;1.90;;;19.50;99.90;;;;;;4991773;28;20125;-58
2022/08/02 06:17:40;;;;;;;6.82;1.60;;;19.60;99.90;;;;;;4998872;28;20085;-58
2022/08/02 06:20:07;;;;;;;5.05;1.40;;;19.70;99.90;;;;;;4998615;28;20068;-58
2022/08/02 06:22:34;;;;;;;9.68;1.35;;;19.80;99.90;;;;;;4998198;28;20038;-58
2022/08/02 06:25:01;;;;;;;3.40;1.15;;;19.90;99.90;;;;;;4997197;28;20118;-58
2022/08/02 06:27:27;;;;;;;6.78;1.40;;;19.80;99.90;;;;;;4995230;28;20164;-58
2022/08/02 06:29:54;;;;;;;7.78;1.50;;;19.70;99.90;;;;;;5005091;28;20026;-58
2022/08/02 06:32:20;;;;;;;7.43;1.92;;;19.70;99.90;;;;;;5000561;28;20362;-58
2022/08/02 06:34:46;;;;;;;5.13;1.80;;;19.60;99.90;;;;;;4999084;28;20030;-58
2022/08/02 06:37:24;;;;;;;6.15;2.53;;;19.50;99.90;;;;;;5003945;28;20580;-57
2022/08/02 06:39:57;;;;;;;13.05;2.47;;;19.50;99.90;;;;;;4996999;28;20033;-57
2022/08/02 06:42:35;;;;;;;10.38;1.75;;;19.60;99.90;;;;;;5002119;28;20065;-57
2022/08/02 06:45:01;;;;;;;4.50;1.10;;;19.70;99.90;;;;;;4999124;28;20046;-57
2022/08/02 06:47:27;;;;;;;7.53;1.60;;;19.70;99.90;;;;;;4992202;28;20499;-58
2022/08/02 06:49:57;;;;;;;4.90;1.20;;;19.90;99.90;;;;;;4987862;28;20098;-58
2022/08/02 06:52:25;;;;;;;8.43;1.48;;;19.80;99.90;;;;;;4986951;28;20106;-59
2022/08/02 06:54:50;;;;;;;6.45;1.85;;;20.00;99.90;;;;;;4988842;28;20030;-58
2022/08/02 06:57:16;;;;;;;9.05;1.77;;;19.90;99.90;;;;;;4994398;28;20026;-58
2022/08/02 06:59:42;;;;;;;4.38;1.77;;;19.90;99.90;;;;;;4993566;28;20033;-58
2022/08/02 07:02:10;;;;;;;4.93;1.20;;;20.00;99.90;;;;;;4990948;28;20042;-58
2022/08/02 07:04:36;;;;;;;3.45;1.02;;;19.90;99.90;;;;;;4992374;28;20022;-58
2022/08/02 07:07:02;;;;;;;3.13;1.00;;;20.00;99.90;;;;;;4994738;28;20104;-58
2022/08/02 07:09:28;;;;;;;5.15;0.90;;;20.10;99.90;;;;;;4992396;28;20033;-59
2022/08/02 07:11:54;;;;;;;4.28;1.00;;;20.10;99.90;;;;;;4995169;28;20038;-59
2022/08/02 07:14:20;;;;;;;5.65;1.20;;;20.30;99.90;;;;;;4991132;28;20061;-57
2022/08/02 07:16:45;;;;;;;6.13;1.88;;;20.30;99.90;;;;;;4995349;28;20490;-58
2022/08/02 07:19:11;;;;;;;7.32;1.55;;;20.30;99.90;;;;;;4987850;28;20046;-58
2022/08/02 07:21:37;;;;;;;7.68;1.20;;;20.40;99.90;;;;;;4991295;28;20042;-58
2022/08/02 07:24:03;;;;;;;3.30;1.10;;;20.50;99.90;;;;;;4992276;28;20084;-60
2022/08/02 07:26:29;;;;;;;2.15;0.82;;;20.20;99.90;;;;;;4993030;28;20027;-58
2022/08/02 07:28:55;;;;;;;4.88;1.35;;;20.30;99.90;;;;;;4995909;28;20034;-58
2022/08/02 07:31:20;;;;;;;4.07;1.17;;;20.40;99.90;;;;;;4990313;28;20490;-58
2022/08/02 07:33:46;;;;;;;5.55;1.20;;;20.40;99.90;;;;;;4998801;28;20029;-57
2022/08/02 07:36:12;;;;;;;7.55;1.20;;;20.50;99.90;;;;;;4994455;28;20477;-58
2022/08/02 07:38:37;;;;;;;6.25;1.33;;;20.40;99.90;;;;;;4990788;28;20062;-58
2022/08/02 07:41:03;;;;;;;3.28;0.80;;;20.30;99.90;;;;;;4990826;28;20438;-58
2022/08/02 07:43:29;;;;;;;2.42;0.60;;;20.30;99.90;;;;;;4991840;28;20037;-58
2022/08/02 07:45:54;;;;;;;5.90;0.93;;;20.30;99.90;;;;;;4991677;28;20026;-58
2022/08/02 07:48:20;;;;;;;5.82;1.20;;;20.20;99.90;;;;;;4989651;28;20132;-58
2022/08/02 07:50:47;;;;;;;7.75;2.30;;;20.30;99.90;;;;;;4990770;28;20018;-58
2022/08/02 07:53:12;;;;;;;5.45;0.65;;;20.50;99.90;;;;;;4996030;28;20777;-58
2022/08/02 07:55:38;;;;;;;2.63;0.90;;;20.40;99.90;;;;;;4996392;28;20037;-58
2022/08/02 07:58:04;;;;;;;6.32;1.20;;;20.50;99.90;;;;;;5000858;28;20577;-58
2022/08/02 08:00:29;;;;;;;4.53;0.90;;;20.70;99.90;;;;;;4989902;28;20371;-58
2022/08/02 08:02:55;;;;;;;11.32;1.85;;;20.90;99.90;;;;;;5004926;28;20132;-59
2022/08/02 08:05:22;;;;;;;3.83;0.90;;;20.90;99.90;;;;;;4990184;28;20069;-57
2022/08/02 08:07:48;;;;;;;5.47;1.08;;;20.70;99.90;;;;;;4990807;28;20069;-58
2022/08/02 08:10:13;;;;;;;5.55;1.23;;;20.80;99.90;;;;;;4989087;28;20065;-58
2022/08/02 08:12:39;;;;;;;5.82;0.98;;;20.80;99.90;;;;;;4987901;28;20049;-60
2022/08/02 08:15:06;;;;;;;4.90;0.88;;;20.60;99.90;;;;;;4988990;28;20026;-58
2022/08/02 08:17:31;;;;;;;5.82;1.10;;;20.60;99.90;;;;;;4991044;28;20030;-58
2022/08/02 08:19:57;;;;;;;2.58;1.02;;;20.60;99.90;;;;;;4989662;28;20030;-58
2022/08/02 08:22:23;;;;;;;2.03;0.70;;;20.80;99.90;;;;;;4995969;28;20062;-58
2022/08/02 08:24:49;;;;;;;3.55;0.63;;;20.90;99.90;;;;;;4984726;28;20058;-59
2022/08/02 08:27:21;;;;;;;2.22;0.80;;;20.70;99.90;;;;;;4987518;28;20038;-59
2022/08/02 08:29:47;;;;;;;3.45;0.82;;;20.70;99.90;;;;;;4984210;28;20462;-59
2022/08/02 08:32:13;;;;;;;3.75;1.00;;;20.50;99.90;;;;;;4986218;28;20034;-58
2022/08/02 08:34:39;;;;;;;2.08;0.85;;;20.50;99.90;;;;;;4990717;28;20049;-58
2022/08/02 08:37:05;;;;;;;1.98;0.75;;;20.40;99.90;;;;;;4992129;28;20046;-58
2022/08/02 08:39:30;;;;;;;1.42;0.55;;;20.40;99.90;;;;;;4990449;28;20034;-61
2022/08/02 08:41:57;;;;;;;2.05;1.02;;;20.40;99.90;;;;;;4995364;28;20121;-58
2022/08/02 08:44:22;;;;;;;4.40;1.10;;;20.60;99.90;;;;;;4995647;28;20460;-57
2022/08/02 08:46:48;;;;;;;11.27;2.60;;;20.50;99.90;;;;;;4993806;28;20026;-57
2022/08/02 08:49:30;;;;;;;5.18;1.38;;;20.40;99.90;;;;;;4997087;28;20438;-58
2022/08/02 08:52:02;;;;;;;2.08;0.73;;;20.40;99.90;;;;;;4988567;28;20081;-57
2022/08/02 08:54:29;;;;;;;2.70;0.52;;;20.50;99.90;;;;;;4985566;28;20029;-58
2022/08/02 08:56:56;;;;;;;4.40;0.70;;;20.50;99.90;;;;;;4992096;28;20077;-58
2022/08/02 08:59:23;;;;;;;2.03;0.45;;;20.60;99.90;;;;;;4987482;28;21440;-58
2022/08/02 09:01:53;;;;;;;3.00;1.17;;;20.70;99.90;;;;;;4994379;28;20023;-59
2022/08/02 09:04:19;;;;;;;3.22;0.70;;;20.70;99.90;;;;;;4990369;28;20030;-58
2022/08/02 09:06:45;;;;;;;3.65;0.70;;;20.80;99.90;;;;;;4990109;28;20076;-58
2022/08/02 09:09:11;;;;;;;4.28;0.80;;;20.70;99.90;;;;;;4986939;28;20483;-58
2022/08/02 09:11:36;;;;;;;6.40;1.13;;;20.60;99.90;;;;;;4986268;28;20414;-59
2022/08/02 09:14:03;;;;;;;3.28;1.10;;;20.40;99.90;;;;;;4988897;28;20030;-57
2022/08/02 09:16:33;;;;;;;9.45;1.08;;;20.30;99.90;;;;;;4994828;28;20078;-57
2022/08/02 09:19:00;;;;;;;4.97;1.10;;;20.40;99.90;;;;;;4986120;28;20033;-57
2022/08/02 09:21:36;;;;;;;5.95;0.80;;;20.30;99.90;;;;;;4987518;28;20045;-57
2022/08/02 09:24:02;;;;;;;5.55;1.45;;;20.30;99.90;;;;;;4985391;28;20015;-57
2022/08/02 09:26:27;;;;;;;2.67;1.02;;;20.30;99.90;;;;;;4988851;28;20435;-58
2022/08/02 09:29:00;;;;;;;4.00;1.13;;;20.40;99.90;;;;;;4986141;28;20125;-58
2022/08/02 09:31:26;;;;;;;4.40;0.90;;;20.40;99.90;;;;;;4986698;28;20097;-57
2022/08/02 09:33:57;;;;;;;2.65;0.70;;;20.30;99.90;;;;;;4992645;28;20030;-58
2022/08/02 09:36:23;;;;;;;3.45;0.50;;;20.30;99.90;;;;;;4987897;28;20113;-58
2022/08/02 09:38:56;;;;;;;3.38;0.80;;;20.40;99.90;;;;;;4986243;28;20030;-59
2022/08/02 09:41:24;;;;;;;3.67;0.93;;;20.40;99.90;;;;;;4984248;28;20096;-58
2022/08/02 09:43:50;;;;;;;3.47;0.80;;;20.30;99.90;;;;;;4982691;28;20042;-58
2022/08/02 09:46:19;;;;;;;4.25;1.33;;;20.50;99.90;;;;;;4989773;28;20040;-58
2022/08/02 09:49:01;;;;;;;3.03;0.85;;;20.50;99.90;;;;;;4990672;28;20034;-59
2022/08/02 09:51:36;;;;;;;3.35;0.70;;;20.60;99.90;;;;;;4989992;28;20034;-58
2022/08/02 09:54:24;;;;;;;3.05;0.70;;;20.60;99.90;;;;;;4991446;28;20072;-58
2022/08/02 09:56:56;;;;;;;3.53;1.02;;;20.50;99.90;;;;;;4977249;28;20038;-58
2022/08/02 09:59:28;;;;;;;;;;;20.50;99.90;;;;;;4995256;28;20038;-59
2022/08/02 10:01:56;;;;;;;2.30;0.82;;;20.60;99.90;;;;;;4985092;28;19924;-58
2022/08/02 10:04:23;;;;;;;3.65;0.70;;;20.60;99.90;;;;;;4984902;28;20050;-58
2022/08/02 10:06:52;;;;;;;5.53;0.85;;;20.70;99.90;;;;;;4992400;28;20023;-58
2022/08/02 10:09:19;;;;;;;2.25;0.70;;;20.80;99.90;;;;;;4989431;28;20027;-56
2022/08/02 10:11:46;;;;;;;4.25;0.68;;;20.80;99.90;;;;;;4985179;28;20031;-57
2022/08/02 10:14:11;;;;;;;3.50;0.55;;;20.90;99.90;;;;;;4987258;28;20171;-58
2022/08/02 10:16:42;;;;;;;3.10;0.63;;;20.90;99.90;;;;;;4993536;28;20487;-57
2022/08/02 10:19:09;;;;;;;5.10;0.90;;;20.90;99.90;;;;;;4984342;28;21682;-58
2022/08/02 10:21:48;;;;;;;8.48;0.82;;;20.80;99.90;;;;;;4989576;28;20323;-58
2022/08/02 10:24:19;;;;;;;4.85;1.00;;;20.90;99.90;;;;;;4989752;28;20038;-58
2022/08/02 10:26:46;;;;;;;8.05;1.15;;;20.80;99.90;;;;;;4986722;28;20018;-58
2022/08/02 10:29:18;;;;;;;6.68;1.20;;;20.70;99.90;;;;;;4989916;28;20489;-58
2022/08/02 10:32:09;;;;;;;3.03;1.00;;;20.70;99.90;;;;;;4992219;28;20038;-58
2022/08/02 10:34:46;;;;;;;4.57;1.55;;;20.70;99.90;;;;;;4985772;28;20030;-57
2022/08/02 10:37:13;;;;;;;8.05;1.10;;;20.70;99.90;;;;;;4985052;28;20058;-57
2022/08/02 10:39:43;;;;;;;4.22;1.00;;;20.50;99.90;;;;;;4990103;28;20092;-57
2022/08/02 10:42:10;;;;;;;4.25;1.27;;;20.20;99.90;;;;;;4979647;28;20118;-58
2022/08/02 10:44:37;;;;;;;4.72;1.40;;;20.10;99.90;;;;;;4987216;28;20045;-58
2022/08/02 10:47:22;;;;;;;6.20;1.67;;;20.10;99.90;;;;;;4986904;28;20072;-57
2022/08/02 10:49:58;;;;;;;4.53;1.95;;;20.20;99.90;;;;;;4987962;28;20042;-57
2022/08/02 10:52:28;;;;;;;5.10;1.88;;;20.20;99.90;;;;;;4984672;28;20537;-59
2022/08/02 10:54:54;;;;;;;3.42;1.70;;;20.30;99.90;;;;;;4992464;28;20080;-59
2022/08/02 10:57:23;;;;;;;2.88;1.67;;;20.10;99.90;;;;;;4985054;28;20076;-57
2022/08/02 11:00:21;;;;;;;5.13;1.33;;;20.10;99.90;;;;;;4989906;28;20014;-58
2022/08/02 11:02:48;;;;;;;4.40;1.35;;;20.40;99.90;;;;;;4985792;28;20041;-58
2022/08/02 11:05:15;;;;;;;5.55;1.80;;;20.50;99.90;;;;;;4986379;28;20588;-57
2022/08/02 11:07:42;;;;;;;6.90;1.80;;;20.60;99.90;;;;;;4993059;28;20033;-58
2022/08/02 11:10:26;;;;;;;7.10;2.38;;;20.50;99.90;;;;;;4989347;28;20427;-58
2022/08/02 11:13:09;;;;;;;5.65;1.50;;;20.40;99.90;;;;;;4990619;28;20394;-58
2022/08/02 11:16:01;;;;;;;4.45;2.20;;;20.60;99.90;;;;;;4988729;28;20061;-58
2022/08/02 11:19:00;;;;;;;3.58;1.90;;;20.80;99.90;;;;;;4985992;28;20031;-58
2022/08/02 11:21:28;;;;;;;7.53;1.88;;;21.00;99.90;;;;;;4958148;28;20132;-58
2022/08/02 11:23:55;;;;;;;2.47;1.70;;;21.10;99.90;;;;;;4989968;28;20432;-59
2022/08/02 11:26:30;;;;;;;3.95;1.17;;;21.00;99.90;;;;;;4990546;28;20517;-58
2022/08/02 11:29:00;;;;;;;5.05;1.33;;;21.00;99.90;;;;;;4985196;28;20030;-58
2022/08/02 11:31:27;;;;;;;6.60;1.40;;;21.00;99.90;;;;;;4988885;28;20030;-57
2022/08/02 11:33:53;;;;;;;5.20;1.10;;;21.10;99.90;;;;;;4989984;28;20094;-58
2022/08/02 11:36:19;;;;;;;4.35;1.02;;;21.10;99.90;;;;;;4991531;28;20029;-57
2022/08/02 11:38:44;;;;;;;6.47;2.13;;;20.90;99.90;;;;;;4988930;28;20026;-59
2022/08/02 11:41:20;;;;;;;3.25;1.48;;;20.70;99.90;;;;;;4986360;28;20057;-57
2022/08/02 11:43:46;;;;;;;3.13;1.23;;;20.70;99.90;;;;;;4990285;28;20035;-58
2022/08/02 11:46:13;;;;;;;5.15;1.90;;;20.80;99.90;;;;;;4988365;28;20058;-59
2022/08/02 11:48:40;;;;;;;7.53;1.52;;;20.70;99.90;;;;;;4987707;28;20034;-58
2022/08/02 11:51:15;;;;;;;5.20;1.30;;;20.70;99.90;;;;;;4985327;28;20398;-58
2022/08/02 11:53:42;;;;;;;8.00;1.60;;;20.70;99.90;;;;;;4991900;28;20026;-60
2022/08/02 11:56:09;;;;;;;5.22;1.40;;;20.40;99.90;;;;;;4987912;28;20478;-58
2022/08/02 11:58:35;;;;;;;8.05;2.50;;;20.20;99.90;;;;;;4990884;28;20022;-60
2022/08/02 12:01:02;;;;;;;3.50;1.80;;;20.40;99.90;;;;;;4993632;28;20026;-58
2022/08/02 12:03:31;;;;;;;9.18;2.28;;;20.60;99.90;;;;;;4987318;28;20486;-59
2022/08/02 12:05:58;;;;;;;8.07;2.13;;;20.60;99.90;;;;;;4992120;28;20029;-59
2022/08/02 12:08:25;;;;;;;9.30;2.20;;;20.70;99.90;;;;;;4987899;28;20500;-58
2022/08/02 12:10:52;;;;;;;5.93;2.13;;;20.70;99.90;;;;;;4988454;28;20033;-57
2022/08/02 12:13:17;;;;;;;7.03;2.08;;;20.70;99.90;;;;;;4987145;28;20080;-59
2022/08/02 12:15:45;;;;;;;6.90;2.15;;;20.90;99.90;;;;;;4990247;28;20085;-59
2022/08/02 12:21:21;;;;;;;5.97;2.20;;;20.90;99.90;;;;;;4987938;28;20458;-58
2022/08/02 12:23:47;;;;;;;6.22;1.73;;;21.00;99.90;;;;;;4988472;28;20034;-58
2022/08/02 12:26:12;;;;;;;5.50;1.60;;;21.00;99.90;;;;;;4986318;28;20442;-58
2022/08/02 12:28:39;;;;;;;5.05;1.83;;;21.00;99.90;;;;;;4988716;28;20068;-58
2022/08/02 12:31:09;;;;;;;11.60;3.72;;;21.00;99.90;;;;;;4987941;28;20486;-58
2022/08/02 12:33:52;;;;;;;9.55;2.10;;;21.20;99.90;;;;;;4995500;28;20035;-58
2022/08/02 12:36:29;;;;;;;4.32;2.05;;;21.50;99.90;;;;;;4978446;28;20112;-58
2022/08/02 12:38:59;;;;;;;4.22;1.77;;;21.60;99.90;;;;;;4993285;28;20038;-58
2022/08/02 12:41:27;;;;;;;4.97;2.13;;;21.70;99.90;;;;;;4987102;28;20038;-58
2022/08/02 12:43:54;;;;;;;8.77;2.08;;;21.90;99.90;;;;;;4988785;28;20125;-58
2022/08/02 12:46:23;;;;;;;3.83;1.40;;;21.90;99.90;;;;;;4986078;28;20026;-58
2022/08/02 12:48:50;;;;;;;2.90;1.33;;;22.10;99.90;;;;;;4988563;28;20394;-57
2022/08/02 12:51:21;;;;;;;4.18;1.40;;;22.30;99.90;;;;;;4992738;28;20027;-58
2022/08/02 12:53:49;;;;;;;6.93;2.33;;;22.40;99.90;;;;;;4984288;28;20097;-58
2022/08/02 12:56:29;;;;;;;7.53;1.60;;;22.70;99.90;;;;;;4989481;28;20023;-58
2022/08/02 12:58:55;;;;;;;5.75;1.55;;;22.60;99.90;;;;;;4989416;28;20928;-58
2022/08/02 13:01:23;;;;;;;9.32;2.00;;;22.90;99.90;;;;;;4985706;28;20034;-58
2022/08/02 13:03:50;;;;;;;3.63;1.70;;;22.90;99.90;;;;;;4990184;28;20029;-57